Time;durP1;ratioP1;P1;durP2;ratioP2;P2;SDS_P1;SDS_P2;PMS_P1;PMS_P2;Temp;Humidity;BMP_temperature;BMP_pressure;BME280_temperature;BME280_humidity;BME280_pressure;Samples;Min_cycle;Max_cycle;Signal;HPM_P1;HPM_P2
2022/01/05 00:00:18;;;;;;;4.70;3.40;;;;;;;3.54;89.40;98342.70;84538;1332;23977;-71
2022/01/05 00:02:50;;;;;;;5.20;3.70;;;;;;;3.50;89.66;98338.08;84537;1327;22594;-70
2022/01/05 00:04:58;;;;;;;5.20;3.70;;;;;;;3.48;89.75;98337.46;84527;1332;24220;-74
2022/01/05 00:07:12;;;;;;;8.60;3.50;;;;;;;3.44;89.68;98342.27;84451;1335;23822;-74
2022/01/05 00:09:20;;;;;;;5.10;3.60;;;;;;;3.41;89.65;98344.13;84528;1333;22642;-74
2022/01/05 00:11:29;;;;;;;5.60;3.70;;;;;;;3.38;89.73;98342.70;84525;1332;22609;-71
2022/01/05 00:13:38;;;;;;;6.00;3.80;;;;;;;3.34;89.62;98347.15;84552;1332;22602;-72
2022/01/05 00:15:51;;;;;;;7.60;4.50;;;;;;;3.30;89.55;98356.45;84533;1332;24125;-71
2022/01/05 00:17:59;;;;;;;6.90;3.80;;;;;;;3.28;89.60;98359.30;84536;1332;22631;-71
2022/01/05 00:20:14;;;;;;;5.90;4.20;;;;;;;3.24;89.61;98367.56;84566;1332;22596;-74
2022/01/05 00:22:23;;;;;;;5.60;4.40;;;;;;;3.21;90.00;98371.48;84579;1334;24290;-73
2022/01/05 00:24:32;;;;;;;6.50;5.00;;;;;;;3.23;90.16;98372.79;84565;1331;22585;-74
2022/01/05 00:26:41;;;;;;;6.30;5.20;;;;;;;3.27;90.34;98372.79;84545;1332;22614;-74
2022/01/05 00:28:50;;;;;;;8.70;5.70;;;;;;;3.31;90.31;98374.34;84515;1330;24301;-74
2022/01/05 00:31:02;;;;;;;8.80;5.40;;;;;;;3.34;90.52;98383.52;84565;1324;22763;-71
2022/01/05 00:33:15;;;;;;;8.40;6.30;;;;;;;3.34;90.43;98384.90;84513;1332;22756;-71
2022/01/05 00:35:27;;;;;;;9.40;6.50;;;;;;;3.34;90.36;98383.35;84543;1333;22649;-70
2022/01/05 00:37:36;;;;;;;13.10;8.20;;;;;;;3.31;90.12;98383.45;84544;1331;22628;-70
2022/01/05 00:39:45;;;;;;;14.10;7.90;;;;;;;3.29;90.38;98383.39;84560;1327;22608;-73
2022/01/05 00:41:56;;;;;;;12.40;7.20;;;;;;;3.30;90.45;98384.89;84530;1331;22894;-74
2022/01/05 00:44:05;;;;;;;12.60;7.50;;;;;;;3.35;90.88;98391.42;84534;1331;22995;-74
2022/01/05 00:46:18;;;;;;;12.30;7.30;;;;;;;3.41;90.93;98389.98;84567;1332;22599;-74
2022/01/05 00:48:29;;;;;;;10.90;8.10;;;;;;;3.49;91.26;98390.67;84534;1331;22693;-74
2022/01/05 00:50:38;;;;;;;9.20;6.80;;;;;;;3.59;91.33;98390.61;84531;1333;22882;-71
2022/01/05 00:52:47;;;;;;;11.20;7.70;;;;;;;3.68;91.52;98394.90;84565;1333;22605;-70
2022/01/05 00:54:56;;;;;;;11.90;7.50;;;;;;;3.77;91.50;98399.67;84550;1330;22599;-74
2022/01/05 00:57:05;;;;;;;12.30;7.60;;;;;;;3.83;91.46;98400.65;84528;1324;22624;-74
2022/01/05 00:59:14;;;;;;;9.20;7.40;;;;;;;3.87;91.46;98407.67;84539;1332;25367;-74
2022/01/05 01:01:26;;;;;;;12.90;7.50;;;;;;;3.91;91.07;98405.14;84556;1331;22618;-74
2022/01/05 01:03:35;;;;;;;10.00;6.60;;;;;;;3.94;91.00;98405.70;84538;1331;22733;-74
2022/01/05 01:05:47;;;;;;;10.40;6.60;;;;;;;3.99;91.22;98411.02;84560;1332;25265;-74
2022/01/05 01:07:58;;;;;;;10.20;7.00;;;;;;;4.03;90.99;98412.89;84536;1327;22807;-74
2022/01/05 01:10:09;;;;;;;10.00;6.90;;;;;;;4.07;90.98;98412.21;84541;1331;22595;-75
2022/01/05 01:12:20;;;;;;;11.40;8.00;;;;;;;4.09;91.05;98414.02;84553;1331;22631;-74
2022/01/05 01:14:29;;;;;;;15.00;6.60;;;;;;;4.12;91.06;98415.08;84535;1328;22618;-74
2022/01/05 01:16:41;;;;;;;10.20;7.40;;;;;;;4.16;91.22;98410.63;84480;1333;22625;-74
2022/01/05 01:18:50;;;;;;;9.10;7.10;;;;;;;4.19;91.08;98411.16;84544;1331;22624;-74
2022/01/05 01:20:59;;;;;;;8.40;7.10;;;;;;;4.25;91.39;98411.45;84517;1332;22616;-71
2022/01/05 01:23:11;;;;;;;12.70;8.10;;;;;;;4.29;91.14;98415.56;84541;1332;22820;-71
2022/01/05 01:25:20;;;;;;;12.60;7.80;;;;;;;4.33;91.13;98419.17;84555;1334;25618;-75
2022/01/05 01:27:29;;;;;;;14.30;8.80;;;;;;;4.37;91.25;98419.20;84504;1329;26518;-73
2022/01/05 01:29:38;;;;;;;13.70;8.90;;;;;;;4.39;91.03;98421.30;84587;1333;22611;-72
2022/01/05 01:31:50;;;;;;;12.10;8.80;;;;;;;4.43;91.05;98422.39;84566;1326;24284;-72
2022/01/05 01:34:02;;;;;;;13.20;9.90;;;;;;;4.44;91.23;98428.90;84533;1331;22774;-71
2022/01/05 01:36:14;;;;;;;11.60;8.70;;;;;;;4.46;91.26;98433.65;84569;1327;22913;-74
2022/01/05 01:38:23;;;;;;;18.60;10.10;;;;;;;4.48;91.06;98428.34;84559;1332;22599;-74
2022/01/05 01:40:31;;;;;;;12.80;8.70;;;;;;;4.52;91.23;98432.48;84522;1328;22655;-74
2022/01/05 01:42:43;;;;;;;11.10;8.30;;;;;;;4.55;91.26;98432.20;84546;1333;22612;-74
2022/01/05 01:44:52;;;;;;;10.40;7.70;;;;;;;4.56;90.99;98434.40;84454;1328;22621;-71
2022/01/05 01:47:02;;;;;;;14.20;9.40;;;;;;;4.60;91.05;98440.08;84542;1333;22613;-71
2022/01/05 01:49:13;;;;;;;14.00;8.70;;;;;;;4.62;91.02;98442.23;84560;1331;24242;-70
2022/01/05 01:51:22;;;;;;;16.00;9.90;;;;;;;4.64;91.10;98442.48;84539;1334;24293;-70
2022/01/05 01:53:31;;;;;;;14.20;10.70;;;;;;;4.69;91.20;98446.45;84538;1332;22734;-71
2022/01/05 01:55:43;;;;;;;14.60;9.40;;;;;;;4.72;91.41;98441.27;84565;1332;22895;-71
2022/01/05 01:57:52;;;;;;;12.40;9.60;;;;;;;4.73;91.24;98439.16;84543;1334;24220;-71
2022/01/05 02:00:04;;;;;;;14.90;10.20;;;;;;;4.76;90.88;98438.02;84545;1333;22946;-74
2022/01/05 02:02:17;;;;;;;15.70;10.00;;;;;;;4.77;90.74;98438.83;84549;1331;23817;-74
2022/01/05 02:04:27;;;;;;;15.80;10.50;;;;;;;4.80;91.42;98443.17;84542;1331;25322;-75
2022/01/05 02:06:39;;;;;;;17.30;10.50;;;;;;;4.84;90.95;98445.05;84534;1332;22631;-71
2022/01/05 02:08:48;;;;;;;16.00;9.80;;;;;;;4.87;91.23;98441.45;84548;1327;22711;-72
2022/01/05 02:10:57;;;;;;;14.00;10.00;;;;;;;4.90;91.28;98443.54;84547;1331;25336;-75
2022/01/05 02:13:06;;;;;;;16.80;12.00;;;;;;;4.92;91.07;98448.45;84537;1332;22631;-74
2022/01/05 02:15:18;;;;;;;16.90;11.60;;;;;;;4.93;90.76;98451.38;84589;1331;23872;-71
2022/01/05 02:17:43;;;;;;;15.90;10.40;;;;;;;4.95;90.90;98455.64;84543;1328;22589;-71
2022/01/05 02:19:51;;;;;;;14.80;10.40;;;;;;;4.96;91.08;98456.77;84581;1333;25455;-71
2022/01/05 02:22:04;;;;;;;15.60;10.10;;;;;;;4.96;90.79;98459.16;84515;1332;23970;-70
2022/01/05 02:24:13;;;;;;;14.90;10.00;;;;;;;4.98;90.93;98461.02;84468;1333;24249;-70
2022/01/05 02:26:22;;;;;;;17.00;11.10;;;;;;;5.01;90.93;98449.83;84559;1328;22599;-71
2022/01/05 02:28:31;;;;;;;15.60;9.70;;;;;;;5.04;90.91;98445.33;84569;1332;22592;-70
2022/01/05 02:30:42;;;;;;;20.90;12.60;;;;;;;5.07;91.21;98450.35;84473;1335;22625;-71
2022/01/05 02:32:51;;;;;;;17.90;11.20;;;;;;;5.07;90.90;98454.35;84570;1330;22708;-71
2022/01/05 02:35:00;;;;;;;15.90;10.50;;;;;;;5.07;90.89;98457.81;84564;1331;22777;-74
2022/01/05 02:37:09;;;;;;;16.70;10.40;;;;;;;5.08;90.99;98459.16;84562;1331;22625;-74
2022/01/05 02:39:18;;;;;;;16.10;10.10;;;;;;;5.09;90.76;98463.97;84565;1332;23216;-73
2022/01/05 02:41:27;;;;;;;16.30;10.10;;;;;;;5.10;90.74;98463.89;84457;1334;22720;-70
2022/01/05 02:43:39;;;;;;;17.00;11.00;;;;;;;5.12;90.85;98464.50;84577;1331;22607;-71
2022/01/05 02:45:48;;;;;;;18.70;11.50;;;;;;;5.16;90.93;98464.31;84555;1332;22607;-74
2022/01/05 02:48:00;;;;;;;20.00;12.60;;;;;;;5.17;91.01;98466.33;84585;1332;22771;-74
2022/01/05 02:50:12;;;;;;;21.30;13.30;;;;;;;5.18;91.03;98467.86;84549;1331;24918;-74
2022/01/05 02:52:23;;;;;;;20.00;11.70;;;;;;;5.19;90.81;98468.17;84464;1336;22622;-75
2022/01/05 02:54:38;;;;;;;17.50;11.60;;;;;;;5.21;90.95;98474.45;84558;1330;23968;-72
2022/01/05 02:56:47;;;;;;;25.90;11.10;;;;;;;5.23;90.92;98474.40;84560;1332;22680;-75
2022/01/05 02:58:59;;;;;;;19.50;11.60;;;;;;;5.24;90.86;98480.39;84552;1333;23593;-74
2022/01/05 03:01:08;;;;;;;19.70;12.70;;;;;;;5.27;90.70;98481.46;84555;1334;22728;-74
2022/01/05 03:03:20;;;;;;;19.10;11.90;;;;;;;5.27;90.83;98484.37;84552;1330;22773;-75
2022/01/05 03:05:32;;;;;;;19.80;13.50;;;;;;;5.27;90.78;98486.45;84584;1328;24833;-73
2022/01/05 03:07:41;;;;;;;23.10;14.40;;;;;;;5.28;90.65;98491.42;84582;1332;22912;-74
2022/01/05 03:09:53;;;;;;;20.50;13.00;;;;;;;5.28;90.66;98493.34;84614;1332;22775;-74
2022/01/05 03:12:02;;;;;;;16.70;12.60;;;;;;;5.27;90.86;98499.58;84570;1331;25289;-74
2022/01/05 03:14:10;;;;;;;;;;;;;;;5.30;90.89;98502.90;84586;1334;22635;-74
2022/01/05 03:16:19;;;;;;;18.60;12.50;;;;;;;5.29;90.81;98501.61;84571;1328;22664;-71
2022/01/05 03:18:31;;;;;;;18.00;12.60;;;;;;;5.30;90.86;98501.38;84498;1331;25336;-71
2022/01/05 03:20:40;;;;;;;18.90;12.20;;;;;;;5.33;91.14;98495.70;84568;1332;25452;-71
2022/01/05 03:22:48;;;;;;;21.10;12.50;;;;;;;5.35;91.18;98493.84;84586;1333;22604;-70
2022/01/05 03:24:57;;;;;;;16.90;13.00;;;;;;;5.36;90.79;98493.81;84559;1333;22638;-70
2022/01/05 03:27:07;;;;;;;21.40;13.60;;;;;;;5.36;90.82;98490.16;84553;1331;22787;-71
2022/01/05 03:29:18;;;;;;;20.50;13.50;;;;;;;5.37;90.83;98490.31;84563;1331;24328;-70
2022/01/05 03:31:28;;;;;;;18.90;11.60;;;;;;;5.38;90.90;98492.16;84551;1332;25331;-75
2022/01/05 03:33:37;;;;;;;15.30;11.90;;;;;;;5.38;90.80;98489.02;84567;1331;24377;-75
2022/01/05 03:35:49;;;;;;;22.00;12.20;;;;;;;5.40;90.73;98486.85;84550;1327;22603;-74
2022/01/05 03:38:01;;;;;;;20.20;13.10;;;;;;;5.44;90.88;98481.49;84579;1331;25288;-75
2022/01/05 03:40:12;;;;;;;17.00;12.90;;;;;;;5.46;91.05;98484.19;84561;1328;22924;-74
2022/01/05 03:42:24;;;;;;;24.30;13.40;;;;;;;5.47;90.75;98482.75;84579;1332;23938;-75
2022/01/05 03:44:34;;;;;;;18.70;13.50;;;;;;;5.49;91.09;98476.42;84584;1334;22579;-71
2022/01/05 03:46:46;;;;;;;22.60;14.00;;;;;;;5.48;90.78;98477.52;84566;1334;23264;-70
2022/01/05 03:48:59;;;;;;;18.20;13.70;;;;;;;5.46;90.57;98481.39;84554;1331;22773;-71
2022/01/05 03:51:11;;;;;;;18.00;13.30;;;;;;;5.48;90.72;98482.39;84579;1333;22604;-74
2022/01/05 03:53:20;;;;;;;17.90;13.40;;;;;;;5.50;90.62;98475.52;84576;1332;24249;-74
2022/01/05 03:55:30;;;;;;;16.60;12.00;;;;;;;5.51;90.69;98478.39;84556;1334;22939;-74
2022/01/05 03:57:39;;;;;;;20.90;13.80;;;;;;;5.52;90.61;98475.96;84557;1333;25390;-74
2022/01/05 03:59:49;;;;;;;16.50;13.90;;;;;;;5.51;90.39;98482.52;84575;1327;23079;-70
2022/01/05 04:01:58;;;;;;;28.80;16.60;;;;;;;5.52;90.64;98482.00;84538;1333;23957;-70
2022/01/05 04:04:08;;;;;;;20.70;14.10;;;;;;;5.51;90.55;98476.30;84548;1317;22584;-72
2022/01/05 04:06:17;;;;;;;18.60;14.60;;;;;;;5.49;90.47;98475.89;84569;1328;22835;-74
2022/01/05 04:08:26;;;;;;;16.80;13.60;;;;;;;5.44;90.14;98473.17;84553;1334;22629;-74
2022/01/05 04:10:35;;;;;;;18.10;12.50;;;;;;;5.40;90.30;98474.08;84551;1331;24241;-75
2022/01/05 04:12:44;;;;;;;18.20;13.40;;;;;;;5.34;89.92;98477.98;84561;1331;25474;-75
2022/01/05 04:14:54;;;;;;;17.90;13.00;;;;;;;5.28;90.12;98475.36;84577;1331;22615;-74
2022/01/05 04:17:02;;;;;;;19.00;14.50;;;;;;;5.20;90.26;98474.83;84554;1332;25457;-75
2022/01/05 04:19:11;;;;;;;19.40;14.50;;;;;;;5.14;90.40;98471.64;84565;1331;26528;-75
2022/01/05 04:21:20;;;;;;;22.40;16.50;;;;;;;5.07;90.09;98472.87;84542;1332;22621;-73
2022/01/05 04:23:32;;;;;;;23.40;16.30;;;;;;;4.96;90.00;98472.85;84565;1332;24279;-76
2022/01/05 04:25:41;;;;;;;17.80;13.30;;;;;;;4.88;90.12;98473.04;84585;1332;24408;-70
2022/01/05 04:27:51;;;;;;;17.90;14.50;;;;;;;4.79;89.72;98477.41;84553;1331;24007;-70
2022/01/05 04:29:59;;;;;;;23.60;14.40;;;;;;;4.71;89.88;98477.28;84559;1331;24231;-73
2022/01/05 04:32:10;;;;;;;17.60;13.20;;;;;;;4.65;90.00;98476.64;84494;1332;22629;-74
2022/01/05 04:34:21;;;;;;;19.10;14.20;;;;;;;4.60;89.86;98483.77;84539;1331;24376;-74
2022/01/05 04:36:31;;;;;;;18.80;15.50;;;;;;;4.54;90.00;98487.14;84549;1330;22601;-71
2022/01/05 04:38:40;;;;;;;20.40;16.20;;;;;;;4.50;90.04;98493.54;84573;1332;22673;-71
2022/01/05 04:40:49;;;;;;;22.60;16.00;;;;;;;4.47;90.33;98494.86;84538;1327;22861;-71
2022/01/05 04:42:58;;;;;;;25.00;16.50;;;;;;;4.47;90.53;98499.00;84572;1331;22692;-71
2022/01/05 04:45:11;;;;;;;22.80;14.60;;;;;;;4.47;90.42;98499.90;84550;1327;22630;-71
2022/01/05 04:47:23;;;;;;;21.60;14.80;;;;;;;4.45;90.62;98499.66;84570;1330;22603;-70
2022/01/05 04:49:38;;;;;;;23.80;15.60;;;;;;;4.48;90.71;98504.14;84545;1329;22591;-73
2022/01/05 04:51:50;;;;;;;19.70;14.90;;;;;;;4.51;90.82;98505.09;84382;1331;262230;-75
2022/01/05 04:54:01;;;;;;;22.30;15.40;;;;;;;4.55;91.21;98504.36;84548;1331;22613;-74
2022/01/05 04:56:10;;;;;;;19.90;15.50;;;;;;;4.61;91.29;98508.25;84541;1331;23948;-70
2022/01/05 04:58:22;;;;;;;21.60;17.00;;;;;;;4.65;91.36;98510.64;84572;1333;22663;-71
2022/01/05 05:00:34;;;;;;;21.30;17.00;;;;;;;4.70;91.36;98516.67;84552;1331;22616;-74
2022/01/05 05:02:46;;;;;;;21.20;16.00;;;;;;;4.73;91.16;98514.31;84556;1331;22599;-74
2022/01/05 05:04:55;;;;;;;23.20;15.30;;;;;;;4.73;91.05;98509.13;84451;1335;24903;-71
2022/01/05 05:07:08;;;;;;;25.80;16.70;;;;;;;4.75;90.93;98509.05;84547;1331;22592;-69
2022/01/05 05:09:17;;;;;;;16.30;13.70;;;;;;;4.78;91.04;98509.92;84576;1332;22598;-70
2022/01/05 05:11:29;;;;;;;18.40;14.30;;;;;;;4.82;91.27;98500.60;84545;1332;24551;-74
2022/01/05 05:13:40;;;;;;;16.90;13.10;;;;;;;4.84;91.20;98488.92;84540;1331;22662;-75
2022/01/05 05:15:49;;;;;;;20.30;14.40;;;;;;;4.85;91.20;98485.42;84558;1328;22926;-70
2022/01/05 05:18:01;;;;;;;20.40;15.70;;;;;;;4.87;91.26;98488.09;84569;1331;22677;-71
2022/01/05 05:20:14;;;;;;;23.00;15.40;;;;;;;4.87;90.82;98491.36;84562;1328;22613;-74
2022/01/05 05:22:26;;;;;;;22.90;16.00;;;;;;;4.88;90.89;98496.36;84528;1331;22859;-75
2022/01/05 05:24:34;;;;;;;21.80;15.50;;;;;;;4.88;91.01;98513.79;84571;1331;25513;-72
2022/01/05 05:26:46;;;;;;;18.80;14.20;;;;;;;4.89;90.76;98529.83;84555;1331;22603;-74
2022/01/05 05:28:55;;;;;;;15.70;14.00;;;;;;;4.90;90.93;98542.05;84563;1333;22816;-75
2022/01/05 05:31:04;;;;;;;19.80;14.10;;;;;;;4.93;91.08;98542.09;84571;1331;24679;-70
2022/01/05 05:33:12;;;;;;;17.20;14.40;;;;;;;4.97;91.18;98542.77;84539;1332;25442;-70
2022/01/05 05:35:21;;;;;;;18.30;15.10;;;;;;;5.00;91.07;98539.73;84525;1331;26521;-75
2022/01/05 05:37:30;;;;;;;21.20;16.30;;;;;;;5.00;90.89;98547.85;84551;1334;24410;-74
2022/01/05 05:39:39;;;;;;;19.80;15.10;;;;;;;4.99;90.97;98549.23;84585;1331;22813;-74
2022/01/05 05:41:48;;;;;;;19.20;14.50;;;;;;;5.00;90.70;98550.23;84556;1323;22594;-74
2022/01/05 05:43:57;;;;;;;18.90;14.90;;;;;;;5.02;90.89;98556.55;84551;1332;22635;-75
2022/01/05 05:46:06;;;;;;;19.10;14.40;;;;;;;5.03;90.78;98566.73;84543;1331;22928;-71
2022/01/05 05:48:15;;;;;;;20.10;14.80;;;;;;;5.05;90.93;98567.84;84541;1334;22635;-71
2022/01/05 05:50:23;;;;;;;16.70;14.20;;;;;;;5.07;90.79;98576.38;84575;1332;22624;-76
2022/01/05 05:52:32;;;;;;;17.70;15.30;;;;;;;5.07;90.85;98575.67;84577;1331;24649;-74
2022/01/05 05:54:41;;;;;;;19.20;15.70;;;;;;;5.10;90.98;98581.75;84550;1332;22621;-75
2022/01/05 05:56:50;;;;;;;21.10;15.60;;;;;;;5.14;91.11;98583.86;84559;1332;22599;-74
2022/01/05 05:58:59;;;;;;;19.60;15.50;;;;;;;5.14;90.85;98590.90;84559;1331;22930;-75
2022/01/05 06:01:11;;;;;;;20.80;14.10;;;;;;;5.14;90.68;98592.48;84605;1332;22614;-71
2022/01/05 06:03:22;;;;;;;19.90;14.00;;;;;;;5.14;90.83;98590.40;84566;1328;22685;-70
2022/01/05 06:05:35;;;;;;;15.80;13.30;;;;;;;5.15;90.79;98590.01;84560;1332;22709;-72
2022/01/05 06:07:44;;;;;;;19.80;13.90;;;;;;;5.16;90.59;98593.41;84571;1332;22610;-71
2022/01/05 06:09:53;;;;;;;15.40;12.90;;;;;;;5.17;90.79;98592.33;84575;1331;22621;-71
2022/01/05 06:12:02;;;;;;;16.30;12.40;;;;;;;5.20;90.84;98593.42;84554;1331;22592;-71
2022/01/05 06:14:11;;;;;;;14.40;11.90;;;;;;;5.22;90.73;98598.71;84563;1332;22625;-71
2022/01/05 06:16:22;;;;;;;16.60;12.00;;;;;;;5.19;90.44;98602.27;84503;1331;25352;-73
2022/01/05 06:18:33;;;;;;;15.00;12.00;;;;;;;5.18;90.48;98605.46;84548;1331;22601;-74
2022/01/05 06:20:42;;;;;;;13.90;11.40;;;;;;;5.17;90.44;98605.33;84572;1334;23904;-70
2022/01/05 06:22:51;;;;;;;14.40;12.20;;;;;;;5.15;90.26;98608.17;84569;1332;25347;-70
2022/01/05 06:25:00;;;;;;;13.30;11.80;;;;;;;5.16;90.33;98611.20;84547;1332;25600;-74
2022/01/05 06:27:12;;;;;;;13.00;11.70;;;;;;;5.17;90.17;98613.25;84542;1332;22883;-74
2022/01/05 06:29:21;;;;;;;17.00;13.10;;;;;;;5.18;90.51;98615.29;84558;1333;22618;-73
2022/01/05 06:31:33;;;;;;;16.20;14.30;;;;;;;5.21;90.56;98618.61;84560;1331;22625;-71
2022/01/05 06:33:45;;;;;;;18.90;13.70;;;;;;;5.23;90.09;98623.75;84574;1332;25003;-76
2022/01/05 06:35:57;;;;;;;17.20;13.40;;;;;;;5.20;89.96;98626.30;84556;1332;22593;-73
2022/01/05 06:38:17;;;;;;;19.50;12.90;;;;;;;5.18;90.11;98629.31;84564;1332;22829;-74
2022/01/05 06:40:30;;;;;;;13.30;11.10;;;;;;;5.18;90.13;98634.32;84584;1331;23988;-70
2022/01/05 06:42:38;;;;;;;12.20;10.50;;;;;;;5.19;90.06;98630.46;84552;1332;23074;-71
2022/01/05 06:44:51;;;;;;;12.80;10.90;;;;;;;5.23;90.19;98631.19;84555;1332;22623;-70
2022/01/05 06:47:03;;;;;;;14.30;12.10;;;;;;;5.23;89.94;98627.90;84581;1326;22601;-71
2022/01/05 06:49:15;;;;;;;11.40;9.80;;;;;;;5.25;89.92;98626.89;84556;1330;22597;-72
2022/01/05 06:51:29;;;;;;;12.40;10.90;;;;;;;5.28;89.89;98628.16;84530;1332;22600;-71
2022/01/05 06:53:40;;;;;;;12.10;10.60;;;;;;;5.27;89.95;98631.14;84584;1332;22599;-70
2022/01/05 06:55:49;;;;;;;13.10;10.40;;;;;;;5.25;89.47;98636.63;84568;1333;22846;-74
2022/01/05 06:57:58;;;;;;;13.90;9.70;;;;;;;5.21;89.65;98643.17;84548;1331;22726;-74
2022/01/05 07:00:11;;;;;;;10.90;8.90;;;;;;;5.18;89.46;98642.45;84589;1332;22621;-70
2022/01/05 07:02:24;;;;;;;9.50;8.00;;;;;;;5.18;89.56;98639.86;84572;1333;22933;-75
2022/01/05 07:04:34;;;;;;;10.30;7.90;;;;;;;5.20;89.26;98637.53;84556;1331;23985;-72
2022/01/05 07:06:43;;;;;;;9.80;8.30;;;;;;;5.20;89.52;98639.42;84569;1331;25470;-71
2022/01/05 07:08:55;;;;;;;10.80;8.40;;;;;;;5.19;89.22;98645.85;84499;1332;22653;-74
2022/01/05 07:11:07;;;;;;;13.20;8.10;;;;;;;5.17;89.37;98642.32;84559;1333;24945;-75
2022/01/05 07:13:20;;;;;;;9.10;7.50;;;;;;;5.14;89.23;98629.64;84573;1332;22715;-75
2022/01/05 07:15:32;;;;;;;10.60;8.20;;;;;;;5.12;89.18;98621.41;84562;1332;22616;-71
2022/01/05 07:17:45;;;;;;;12.50;8.30;;;;;;;5.09;89.11;98626.21;84564;1331;23958;-71
2022/01/05 07:20:21;;;;;;;10.10;7.70;;;;;;;5.06;89.01;98629.48;84587;1333;22615;-74
2022/01/05 07:22:41;;;;;;;9.00;7.40;;;;;;;5.02;88.94;98633.27;84550;1332;24391;-70
2022/01/05 07:24:54;;;;;;;8.20;6.70;;;;;;;5.01;89.22;98640.04;84579;1334;22806;-74
2022/01/05 07:27:04;;;;;;;10.00;8.00;;;;;;;5.03;89.17;98641.19;84564;1332;24400;-75
2022/01/05 07:29:17;;;;;;;8.30;7.00;;;;;;;5.05;89.34;98634.20;84550;1331;23965;-74
2022/01/05 07:31:29;;;;;;;12.70;9.40;;;;;;;5.05;89.32;98632.65;84566;1331;22777;-74
2022/01/05 07:33:42;;;;;;;9.90;8.90;;;;;;;5.03;89.16;98626.32;84553;1333;24285;-74
2022/01/05 07:35:53;;;;;;;9.80;8.60;;;;;;;5.04;89.41;98630.30;84571;1332;22601;-74
2022/01/05 07:38:03;;;;;;;11.10;8.50;;;;;;;5.05;89.59;98632.98;84547;1332;22639;-74
2022/01/05 07:40:17;;;;;;;10.20;8.60;;;;;;;5.08;89.68;98635.96;84589;1333;22597;-70
2022/01/05 07:42:33;;;;;;;10.30;8.70;;;;;;;5.10;89.61;98640.86;84589;1331;22589;-71
2022/01/05 07:44:45;;;;;;;10.50;9.50;;;;;;;5.10;89.53;98637.25;84558;1332;24203;-73
2022/01/05 07:46:54;;;;;;;15.60;9.10;;;;;;;5.09;89.46;98634.04;84555;1332;22821;-75
2022/01/05 07:49:06;;;;;;;14.00;9.70;;;;;;;5.09;89.52;98631.27;84537;1327;24336;-74
2022/01/05 07:51:18;;;;;;;17.50;13.40;;;;;;;5.09;89.88;98629.34;84582;1332;22860;-74
2022/01/05 07:53:27;;;;;;;18.70;13.20;;;;;;;5.11;89.81;98634.09;84566;1331;25203;-75
2022/01/05 07:55:37;;;;;;;17.40;12.90;;;;;;;5.11;89.81;98642.04;84580;1333;22681;-75
2022/01/05 07:58:27;;;;;;;;;;;;;;;;;;;;;
2022/01/05 08:01:08;;;;;;;17.30;13.00;;;;;;;5.16;89.77;98638.18;84544;1332;24258;-74
2022/01/05 08:03:17;;;;;;;15.40;12.70;;;;;;;5.17;90.00;98634.70;84542;1333;23882;-74
2022/01/05 08:05:30;;;;;;;17.40;13.50;;;;;;;5.19;89.64;98629.59;84591;1334;24237;-74
2022/01/05 08:07:41;;;;;;;18.30;13.90;;;;;;;5.19;89.79;98626.14;84569;1331;22612;-75
2022/01/05 08:09:52;;;;;;;18.80;15.00;;;;;;;5.20;89.85;98623.67;84554;1332;22681;-74
2022/01/05 08:12:02;;;;;;;20.00;14.10;;;;;;;5.17;89.71;98617.56;84579;1331;22621;-76
2022/01/05 08:14:16;;;;;;;18.10;14.40;;;;;;;5.16;89.98;98612.61;84586;1332;25448;-74
2022/01/05 08:16:25;;;;;;;17.70;14.60;;;;;;;5.16;89.95;98610.34;84543;1331;22658;-70
2022/01/05 08:18:37;;;;;;;16.40;13.10;;;;;;;5.20;89.72;98613.67;84562;1334;22746;-70
2022/01/05 08:20:48;;;;;;;15.70;13.40;;;;;;;5.20;89.85;98614.19;84575;1334;24392;-74
2022/01/05 08:23:01;;;;;;;17.00;12.40;;;;;;;5.19;89.87;98616.13;84545;1332;22602;-75
2022/01/05 08:25:12;;;;;;;17.00;13.40;;;;;;;5.19;89.83;98615.59;84597;1334;23744;-74
2022/01/05 08:27:24;;;;;;;15.90;12.90;;;;;;;5.21;89.90;98613.62;84571;1334;22629;-75
2022/01/05 08:29:34;;;;;;;20.40;14.50;;;;;;;5.20;89.74;98614.86;84542;1334;22716;-72
2022/01/05 08:31:46;;;;;;;18.40;13.60;;;;;;;5.20;89.67;98617.27;84573;1333;24249;-71
2022/01/05 08:34:01;;;;;;;17.50;13.90;;;;;;;5.21;89.66;98619.48;84543;1332;24266;-71
2022/01/05 08:36:11;;;;;;;19.20;13.00;;;;;;;5.22;89.89;98621.69;84558;1334;22867;-70
2022/01/05 08:38:18;;;;;;;;;;;;;;;5.23;89.89;98622.87;84589;1332;24143;-75
2022/01/05 08:40:30;;;;;;;16.50;12.20;;;;;;;5.21;89.87;98617.25;84548;1332;22593;-71
2022/01/05 08:42:40;;;;;;;22.40;13.20;;;;;;;5.20;89.38;98616.77;84537;1332;25452;-71
2022/01/05 08:44:53;;;;;;;14.60;11.30;;;;;;;5.17;89.52;98619.12;84517;1333;23974;-70
2022/01/05 08:47:05;;;;;;;14.10;11.50;;;;;;;5.18;89.80;98621.36;84561;1330;25481;-70
2022/01/05 08:49:15;;;;;;;15.40;11.50;;;;;;;5.20;89.71;98624.91;84577;1331;22622;-70
2022/01/05 08:51:27;;;;;;;16.10;11.70;;;;;;;5.21;89.45;98624.86;84460;1334;23997;-75
2022/01/05 08:53:39;;;;;;;15.30;11.30;;;;;;;5.23;89.60;98629.45;84492;1333;22601;-75
2022/01/05 08:55:52;;;;;;;13.40;11.30;;;;;;;5.22;89.51;98629.31;84554;1332;22628;-70
2022/01/05 08:58:01;;;;;;;14.00;10.60;;;;;;;5.22;89.43;98627.40;84558;1333;23978;-71
2022/01/05 09:00:15;;;;;;;13.20;10.60;;;;;;;5.22;89.48;98624.65;84449;1335;22624;-70
2022/01/05 09:02:28;;;;;;;15.80;10.10;;;;;;;5.23;89.38;98624.94;84567;1332;22682;-69
2022/01/05 09:04:48;;;;;;;16.00;12.10;;;;;;;5.27;89.46;98625.80;84539;1330;22605;-73
2022/01/05 09:07:01;;;;;;;14.10;10.50;;;;;;;5.29;89.47;98625.87;84557;1332;23986;-74
2022/01/05 09:09:10;;;;;;;12.00;9.30;;;;;;;5.30;89.30;98625.15;84540;1332;22600;-74
2022/01/05 09:11:20;;;;;;;15.70;11.40;;;;;;;5.31;89.51;98624.72;84579;1331;25516;-78
2022/01/05 09:13:29;;;;;;;13.60;10.90;;;;;;;5.34;89.43;98630.49;84537;1328;22749;-75
2022/01/05 09:15:38;;;;;;;14.70;11.50;;;;;;;5.37;89.31;98631.74;84556;1330;22616;-74
2022/01/05 09:17:47;;;;;;;16.40;10.50;;;;;;;5.43;89.80;98631.81;84572;1334;22614;-74
2022/01/05 09:19:56;;;;;;;17.00;11.20;;;;;;;5.48;89.53;98628.16;84557;1333;22754;-70
2022/01/05 09:22:06;;;;;;;15.00;11.70;;;;;;;5.52;89.27;98627.60;84555;1331;22610;-75
2022/01/05 09:24:15;;;;;;;12.70;11.00;;;;;;;5.58;89.69;98623.38;84573;1331;25435;-75
2022/01/05 09:26:26;;;;;;;15.60;12.70;;;;;;;5.65;89.52;98627.21;84546;1333;22931;-70
2022/01/05 09:28:42;;;;;;;16.40;13.00;;;;;;;5.70;89.63;98623.13;84551;1332;22633;-70
2022/01/05 09:30:54;;;;;;;21.80;14.70;;;;;;;5.76;89.47;98623.40;84557;1334;25375;-71
2022/01/05 09:33:04;;;;;;;18.60;13.90;;;;;;;5.83;89.38;98626.54;84548;1332;22602;-71
2022/01/05 09:35:20;;;;;;;16.70;13.70;;;;;;;5.87;89.47;98623.89;84586;1334;22610;-70
2022/01/05 09:37:35;;;;;;;19.90;14.20;;;;;;;5.91;89.28;98619.23;84557;1331;22638;-69
2022/01/05 09:42:14;;;;;;;;;;;;;;;6.00;89.34;98616.10;84430;1334;23934;-75
2022/01/05 09:44:24;;;;;;;16.90;13.40;;;;;;;6.01;89.00;98615.52;84562;1334;22615;-75
2022/01/05 09:46:43;;;;;;;17.30;14.00;;;;;;;6.05;89.25;98611.36;84477;1332;26544;-70
2022/01/05 09:49:04;;;;;;;19.90;14.70;;;;;;;6.06;88.97;98613.88;84542;1332;23265;-70
2022/01/05 09:51:13;;;;;;;18.10;13.70;;;;;;;6.08;88.78;98619.29;84570;1332;22585;-75
2022/01/05 09:53:22;;;;;;;16.80;13.60;;;;;;;6.08;88.67;98621.59;84540;1334;25288;-75
2022/01/05 09:55:31;;;;;;;18.60;14.00;;;;;;;6.12;89.07;98618.46;84566;1332;22942;-69
2022/01/05 09:57:42;;;;;;;15.70;12.80;;;;;;;6.18;88.91;98620.03;84546;1334;22565;-71
2022/01/05 09:59:52;;;;;;;14.10;12.30;;;;;;;6.23;88.96;98618.59;84575;1334;22616;-70
2022/01/05 10:02:02;;;;;;;17.30;12.60;;;;;;;6.29;89.02;98621.93;84555;1331;22612;-70
2022/01/05 10:04:14;;;;;;;;;;;;;;;6.34;88.88;98628.09;84583;1332;24289;-70
2022/01/05 10:06:23;;;;;;;16.30;12.80;;;;;;;6.36;88.77;98632.36;84497;1334;22664;-75
2022/01/05 10:08:37;;;;;;;18.10;14.40;;;;;;;6.37;88.68;98629.55;84552;1332;22628;-75
2022/01/05 10:10:50;;;;;;;18.90;14.90;;;;;;;6.36;88.48;98629.42;84549;1331;23069;-70
2022/01/05 10:13:03;;;;;;;18.20;12.80;;;;;;;6.34;88.22;98624.48;84567;1334;22610;-69
2022/01/05 10:15:15;;;;;;;21.20;14.90;;;;;;;6.33;88.20;98624.70;84575;1334;22621;-71
2022/01/05 10:17:32;;;;;;;18.10;13.60;;;;;;;6.30;87.93;98625.90;84542;1333;22613;-70